METAR AND TAF INFORMATION
METAR FOR LFSB
ADDS - METARS form results

(0511 UTC 20 October 2020)
Data provider http://aviationweather.gov/metar/data/
 
METAR text: LFSB 200500Z 19006KT CAVOK 07/05 Q1016 NOSIG
Conditions at: LFSB (BALE/MULHOUSE , FR) observed 0500 UTC 20 October 2020
Temperature: 7.0°C (45°F)
Dewpoint: 5.0°C (41°F) [RH = 87%]
Pressure (altimeter): 30.00 inches Hg (1016.0 mb)
Winds: from the S (190 degrees) at 7 MPH (6 knots; 3.1 m/s)
Visibility: 6 or more miles (10+ km)
Ceiling: ceiling and visibility are OK
Clouds: unknown
Weather: no significant weather observed at this time

METAR text: LFSB 200430Z 17008KT CAVOK 07/05 Q1016 NOSIG
Conditions at: LFSB (BALE/MULHOUSE , FR) observed 0430 UTC 20 October 2020
Temperature: 7.0°C (45°F)
Dewpoint: 5.0°C (41°F) [RH = 87%]
Pressure (altimeter): 30.00 inches Hg (1016.0 mb)
Winds: from the S (170 degrees) at 9 MPH (8 knots; 4.1 m/s)
Visibility: 6 or more miles (10+ km)
Ceiling: ceiling and visibility are OK
Clouds: unknown
Weather: no significant weather observed at this time

Forecast for: LFSB (BALE/MULHOUSE , FR)
Text: TAF LFSB 192300Z 2000/2024 15004KT CAVOK
Forecast period: 0000 UTC 20 October 2020 to 0000 UTC 21 October 2020
Forecast type: FROM: standard forecast or significant change
Winds: from the SSE (150 degrees) at 5 MPH (4 knots; 2.1 m/s)
Visibility: 6 or more miles (10+ km)
Ceiling: unknown
Clouds: missing
Weather: NSW  (no significant weather)
Text: PROB30
Forecast period: 0400 to 0800 UTC 20 October 2020
Forecast type: TEMPORARY: The following changes expected for less than half the time period
Visibility: 1.86 miles (2.99 km)
Ceiling: unknown
Clouds: missing
Weather: MIFG  (shallow fog)

 AIRPORT MAP

 RUNWAY INFORMATION
Runway 08 Runway length 5969 ft Runway width 197 ft
Runway elevation 881 ft Runway displaced threshold 0 ft Runway heading 77
Runway 26 Runway length 5969 ft Runway width 197 ft
Runway elevation 884 ft Runway displaced threshold 722 ft Runway heading 257
Runway 15 Runway length 12795 ft Runway width 197 ft
Runway elevation 865 ft Runway displaced threshold 0 ft Runway heading 155
Runway 33 Runway length 12795 ft Runway width 197 ft
Runway elevation 882 ft Runway displaced threshold 0 ft Runway heading 335

 AIRPORT FREQUENCIES
Type A/D Name APP Frequency 118.575 MHZ
Type ATIS Name ATIS Frequency 127.875 MHZ
Type GND Name GND Frequency 121.6 MHZ
Type INFO Name INFO Frequency 121.25 MHZ
Type PFLT Name PREFLIGHT Frequency 120.5 MHZ
Type TWR Name TWR Frequency 118.3 MHZ

 AIRPORT NEAR NAVIGATION AIDS
Type VOR-DME Name Bale Mulhouse Frequency 117450 KHZ
Type NDB Name Bale Mulhouse Frequency 353 KHZ



Powered by Virtual Airlines Manager [v2.6.2]